createdAt,value
2019-04-04T00:00:01.814Z,99.99
2019-04-04T00:01:00.364Z,99.99
2019-04-04T00:01:59.001Z,99.99
2019-04-04T00:02:57.606Z,99.99
2019-04-04T00:03:56.255Z,99.99
2019-04-04T00:04:57.656Z,99.99
2019-04-04T00:05:55.065Z,99.69
2019-04-04T00:06:52.501Z,99.79
2019-04-04T00:07:51.224Z,99.99
2019-04-04T00:08:49.802Z,99.99
2019-04-04T00:09:48.617Z,99.99
2019-04-04T00:10:47.246Z,99.99
2019-04-04T00:11:45.791Z,99.99
2019-04-04T00:12:44.463Z,99.99
2019-04-04T00:13:43.015Z,99.99
2019-04-04T00:14:43.463Z,99.99
2019-04-04T00:15:40.301Z,99.89
2019-04-04T00:16:39.001Z,99.22
2019-04-04T00:17:37.526Z,98.94
2019-04-04T00:18:36.234Z,99.46
2019-04-04T00:19:34.854Z,99.99
2019-04-04T00:20:33.567Z,99.99
2019-04-04T00:21:33.915Z,99.99
2019-04-04T00:22:30.780Z,99.69
2019-04-04T00:23:29.340Z,99.32
2019-04-04T00:24:27.900Z,98.22
2019-04-04T00:25:26.717Z,98.46
2019-04-04T00:26:25.396Z,99.22
2019-04-04T00:27:23.948Z,99.32
2019-04-04T00:28:22.685Z,99.37
2019-04-04T00:29:21.286Z,98.7
2019-04-04T00:30:19.852Z,97.99
2019-04-04T00:31:19.525Z,98.27
2019-04-04T00:32:20.619Z,98.46
2019-04-04T00:33:15.955Z,97.7
2019-04-04T00:34:14.656Z,97.89
2019-04-04T00:35:13.332Z,97.75
2019-04-04T00:36:11.935Z,97.7
2019-04-04T00:37:10.844Z,97.89
2019-04-04T00:38:09.425Z,98.08
2019-04-04T00:39:09.412Z,98.94
2019-04-04T00:40:06.604Z,98.65
2019-04-04T00:41:05.293Z,98.55
2019-04-04T00:42:03.854Z,99.22
2019-04-04T00:43:02.423Z,98.74
2019-04-04T00:44:01.149Z,98.7
2019-04-04T00:44:59.701Z,97.94
2019-04-04T00:46:00.440Z,97.36
2019-04-04T00:46:57.269Z,96.98
2019-04-04T00:47:55.830Z,97.56
2019-04-04T00:48:54.373Z,97.56
2019-04-04T00:49:52.955Z,98.03
2019-04-04T00:50:51.552Z,97.65
2019-04-04T00:51:50.118Z,97.08
2019-04-04T00:52:48.653Z,97.46
2019-04-04T00:53:47.209Z,96.6
2019-04-04T00:54:45.767Z,97.17
2019-04-04T00:55:45.042Z,96.8
2019-04-04T00:56:43.297Z,96.03
2019-04-04T00:57:41.872Z,95.84
2019-04-04T00:58:40.540Z,96.12
2019-04-04T00:59:39.158Z,96.32
2019-04-04T01:00:37.740Z,96.6
2019-04-04T01:01:36.345Z,96.12
2019-04-04T01:02:35.037Z,96.51
2019-04-04T01:03:33.590Z,95.94
2019-04-04T01:04:32.217Z,95.08
2019-04-04T01:05:32.014Z,95.08
2019-04-04T01:06:29.571Z,95.17
2019-04-04T01:07:28.141Z,94.7
2019-04-04T01:08:26.780Z,94.32
2019-04-04T01:09:25.369Z,93.93
2019-04-04T01:10:23.893Z,94.7
2019-04-04T01:11:22.489Z,94.79
2019-04-04T01:12:21.616Z,94.51
2019-04-04T01:13:21.189Z,94.51
2019-04-04T01:14:18.358Z,93.93
2019-04-04T01:15:17.222Z,94.89
2019-04-04T01:16:15.780Z,95.08
2019-04-04T01:17:14.409Z,94.6
2019-04-04T01:18:13.020Z,95.27
2019-04-04T01:20:55.073Z,94.79
2019-04-04T01:21:53.962Z,93.93
2019-04-04T01:22:54.008Z,93.74
2019-04-04T01:23:51.193Z,92.89
2019-04-04T01:24:49.763Z,92.93
2019-04-04T01:25:48.328Z,93.08
2019-04-04T01:26:46.997Z,92.5
2019-04-04T01:27:45.525Z,92.41
2019-04-04T01:28:44.127Z,92.79
2019-04-04T01:29:43.026Z,92.22
2019-04-04T01:30:43.458Z,92.79
2019-04-04T01:31:40.146Z,92.79
2019-04-04T01:32:38.861Z,92.69
2019-04-04T01:33:37.525Z,93.17
2019-04-04T01:34:36.132Z,92.89
2019-04-04T01:35:34.662Z,92.32
2019-04-04T01:36:33.252Z,92.5
2019-04-04T01:37:31.923Z,92.6
2019-04-04T01:38:30.714Z,92.6
2019-04-04T01:39:31.167Z,92.79
2019-04-04T01:40:27.990Z,92.6
2019-04-04T01:41:26.576Z,92.6
2019-04-04T01:42:25.210Z,93.27
2019-04-04T01:43:23.742Z,93.65
2019-04-04T01:44:22.281Z,93.37
2019-04-04T01:45:20.870Z,93.84
2019-04-04T01:46:19.439Z,93.55
2019-04-04T01:47:17.995Z,93.37
2019-04-04T01:48:18.418Z,94.13
2019-04-04T01:49:15.535Z,93.55
2019-04-04T01:50:14.109Z,93.32
2019-04-04T01:51:12.728Z,94.37
2019-04-04T01:52:11.439Z,95.32
2019-04-04T01:53:10.080Z,95.41
2019-04-04T01:54:08.897Z,94.46
2019-04-04T01:55:07.459Z,94.74
2019-04-04T01:56:06.944Z,95.22
2019-04-04T01:57:07.629Z,94.51
2019-04-04T01:59:45.103Z,94.46
2019-04-04T02:00:43.996Z,94.13
2019-04-04T02:01:42.340Z,93.46
2019-04-04T02:02:40.967Z,93.08
2019-04-04T02:03:39.513Z,92.69
2019-04-04T02:04:38.079Z,92.69
2019-04-04T02:05:36.767Z,93.17
2019-04-04T02:06:35.520Z,92.6
2019-04-04T02:07:34.080Z,92.5
2019-04-04T02:08:32.621Z,92.32
2019-04-04T02:09:31.978Z,92.41
2019-04-04T02:10:29.943Z,92.69
2019-04-04T02:11:28.587Z,93.17
2019-04-04T02:12:27.226Z,93.08
2019-04-04T02:13:25.813Z,92.69
2019-04-04T02:14:24.431Z,92.69
2019-04-04T02:15:23.119Z,92.55
2019-04-04T02:28:39.838Z,92.32
2019-04-04T02:29:36.418Z,92.13
2019-04-04T02:30:35.098Z,92.69
2019-04-04T02:31:33.637Z,91.84
2019-04-04T02:32:32.198Z,92.79
2019-04-04T02:33:32.377Z,93.08
2019-04-04T02:37:09.536Z,92.89
2019-04-04T02:38:08.108Z,93.55
2019-04-04T02:39:06.880Z,93.55
2019-04-04T02:40:05.946Z,93.65
2019-04-04T02:41:04.029Z,94.79
2019-04-04T02:42:02.581Z,95.17
2019-04-04T02:43:01.152Z,95.84
2019-04-04T02:44:00.719Z,95.27
2019-04-04T02:44:58.602Z,94.6
2019-04-04T02:45:57.374Z,94.41
2019-04-04T02:46:55.947Z,93.84
2019-04-04T02:47:54.559Z,93.93
2019-04-04T02:48:53.508Z,93.84
2019-04-04T02:49:52.269Z,93.65
2019-04-04T02:50:50.941Z,92.89
2019-04-04T02:51:49.627Z,93.03
2019-04-04T02:52:48.190Z,92.89
2019-04-04T02:53:46.817Z,91.98
2019-04-04T02:54:45.349Z,92.27
2019-04-04T02:55:43.948Z,92.84
2019-04-04T02:56:42.832Z,92.74
2019-04-04T02:57:42.463Z,91.88
2019-04-04T02:58:39.954Z,92.6
2019-04-04T02:59:38.675Z,93.27
2019-04-04T03:00:37.404Z,92.5
2019-04-04T03:01:35.984Z,91.94
2019-04-04T03:02:36.894Z,91.94
2019-04-04T03:03:33.236Z,91.94
2019-04-04T03:04:31.784Z,92.98
2019-04-04T03:05:30.438Z,92.41
2019-04-04T03:06:29.038Z,92.98
2019-04-04T03:07:30.769Z,92.5
2019-04-04T03:08:26.138Z,92.13
2019-04-04T03:09:25.903Z,92.22
2019-04-04T03:10:24.458Z,92.03
2019-04-04T03:11:23.098Z,92.89
2019-04-04T03:12:25.629Z,92.6
2019-04-04T03:13:20.308Z,92.89
2019-04-04T03:14:19.052Z,92.22
2019-04-04T03:15:17.594Z,91.08
2019-04-04T03:16:16.167Z,90.98
2019-04-04T03:17:14.985Z,90.79
2019-04-04T03:18:13.702Z,91.17
2019-04-04T03:19:12.259Z,90.6
2019-04-04T03:20:10.827Z,91.36
2019-04-04T03:21:09.389Z,91.55
2019-04-04T03:22:07.970Z,91.36
2019-04-04T03:23:06.647Z,91.74
2019-04-04T03:24:06.375Z,91.74
2019-04-04T03:25:03.892Z,91.74
2019-04-04T03:26:02.578Z,91.65
2019-04-04T03:27:01.238Z,91.36
2019-04-04T03:27:59.797Z,90.98
2019-04-04T03:28:58.337Z,90.89
2019-04-04T03:29:56.871Z,90.7
2019-04-04T03:31:02.176Z,90.45
2019-04-04T03:31:54.025Z,90.36
2019-04-04T03:32:54.808Z,90.41
2019-04-04T03:33:51.363Z,90.79
2019-04-04T03:34:51.323Z,90.6
2019-04-04T03:35:48.740Z,90.98
2019-04-04T03:36:47.382Z,90.41
2019-04-04T03:37:46.405Z,90.55
2019-04-04T03:38:47.009Z,89.69
2019-04-04T03:39:43.082Z,89.75
2019-04-04T03:40:42.052Z,90.03
2019-04-04T03:41:40.194Z,90.12
2019-04-04T03:42:38.757Z,90.6
2019-04-04T03:43:37.342Z,89.65
2019-04-04T03:44:35.905Z,89.84
2019-04-04T03:45:34.476Z,89.84
2019-04-04T03:46:38.193Z,90.12
2019-04-04T03:47:31.680Z,90.41
2019-04-04T03:48:30.604Z,90.89
2019-04-04T03:49:29.194Z,90.6
2019-04-04T03:50:30.084Z,90.12
2019-04-04T03:51:26.404Z,90.5
2019-04-04T03:52:25.119Z,90.6
2019-04-04T03:53:23.652Z,91.36
2019-04-04T03:54:23.478Z,91.17
2019-04-04T03:55:21.150Z,91.55
2019-04-04T03:56:19.682Z,91.46
2019-04-04T03:57:18.262Z,91.08
2019-04-04T03:58:16.820Z,90.89
2019-04-04T03:59:15.376Z,90.7
2019-04-04T04:00:13.957Z,91.46
2019-04-04T04:01:13.358Z,91.08
2019-04-04T04:02:11.314Z,91.08
2019-04-04T04:03:09.900Z,91.55
2019-04-04T04:04:08.818Z,91.17
2019-04-04T04:05:07.440Z,90.98
2019-04-04T04:06:08.806Z,90.41
2019-04-04T04:07:04.571Z,90.5
2019-04-04T04:08:03.174Z,90.41
2019-04-04T04:09:01.762Z,90.6
2019-04-04T04:10:00.572Z,90.55
2019-04-04T04:10:59.229Z,90.26
2019-04-04T04:11:57.802Z,90.45
2019-04-04T04:12:56.384Z,89.17
2019-04-04T04:13:55.061Z,89.46
2019-04-04T04:14:54.994Z,89.17
2019-04-04T04:15:52.411Z,89.65
2019-04-04T04:16:51.076Z,90.12
2019-04-04T04:17:49.657Z,90.41
2019-04-04T04:18:48.425Z,90.41
2019-04-04T04:19:47.061Z,89.84
2019-04-04T04:20:45.628Z,89.55
2019-04-04T04:21:44.157Z,89.65
2019-04-04T04:22:42.773Z,90.03
2019-04-04T04:23:41.435Z,90.26
2019-04-04T04:24:39.978Z,89.98
2019-04-04T04:25:38.866Z,90.36
2019-04-04T04:26:40.797Z,90.41
2019-04-04T04:27:35.951Z,89.84
2019-04-04T04:28:34.687Z,89.65
2019-04-04T04:29:33.289Z,89.94
2019-04-04T04:30:31.906Z,90.41
2019-04-04T04:31:30.422Z,90.6
2019-04-04T04:32:29.148Z,90.41
2019-04-04T04:33:29.255Z,89.55
2019-04-04T04:34:26.386Z,89.55
2019-04-04T04:35:25.315Z,90.5
2019-04-04T04:36:23.909Z,89.94
2019-04-04T04:37:22.418Z,90.31
2019-04-04T04:38:25.175Z,89.65
2019-04-04T04:39:19.540Z,88.51
2019-04-04T04:40:18.093Z,89.17
2019-04-04T04:41:19.738Z,89.36
2019-04-04T04:42:15.608Z,89.84
2019-04-04T04:43:15.535Z,89.84
2019-04-04T04:44:12.826Z,89.84
2019-04-04T04:45:12.418Z,90.79
2019-04-04T04:46:10.094Z,90.31
2019-04-04T04:47:08.701Z,89.84
2019-04-04T04:48:07.375Z,90.79
2019-04-04T04:49:05.956Z,90.98
2019-04-04T04:50:08.476Z,91.84
2019-04-04T04:51:03.325Z,91.55
2019-04-04T04:52:01.821Z,91.55
2019-04-04T04:53:00.474Z,91.84
2019-04-04T04:53:59.069Z,91.74
2019-04-04T04:54:57.636Z,91.41
2019-04-04T04:55:59.372Z,90.98
2019-04-04T04:56:54.758Z,91.17
2019-04-04T04:57:56.018Z,90.89
2019-04-04T04:58:51.969Z,90.79
2019-04-04T04:59:50.847Z,91.17
2019-04-04T05:00:49.399Z,90.89
2019-04-04T05:01:50.049Z,90.26
2019-04-04T05:02:46.725Z,89.89
2019-04-04T05:03:45.353Z,90.45
2019-04-04T05:04:43.914Z,90.17
2019-04-04T05:05:42.487Z,90.6
2019-04-04T05:06:41.062Z,90.98
2019-04-04T05:07:39.661Z,91.08
2019-04-04T05:08:38.989Z,90.89
2019-04-04T05:09:36.907Z,91.17
2019-04-04T05:10:35.495Z,90.41
2019-04-04T05:11:34.192Z,89.94
2019-04-04T05:12:32.853Z,90.64
2019-04-04T05:13:31.479Z,89.07
2019-04-04T05:14:30.430Z,89.07
2019-04-04T05:15:30.357Z,89.46
2019-04-04T05:16:27.133Z,89.26
2019-04-04T05:17:25.827Z,89.94
2019-04-04T05:18:24.353Z,89.65
2019-04-04T05:19:23.117Z,90.03
2019-04-04T05:20:23.076Z,90.12
2019-04-04T05:21:25.068Z,90.03
2019-04-04T05:22:18.949Z,89.75
2019-04-04T05:23:17.827Z,89.84
2019-04-04T05:24:18.006Z,89.17
2019-04-04T05:25:15.183Z,89.46
2019-04-04T05:26:13.722Z,89.36
2019-04-04T05:27:12.263Z,89.94
2019-04-04T05:28:11.456Z,90.22
2019-04-04T05:29:13.012Z,90.41
2019-04-04T05:30:08.607Z,90.03
2019-04-04T05:31:06.802Z,90.31
2019-04-04T05:32:05.455Z,89.84
2019-04-04T05:33:04.002Z,89.26
2019-04-04T05:34:02.666Z,89.17
2019-04-04T05:35:01.965Z,89.46
2019-04-04T05:36:00.007Z,89.84
2019-04-04T05:36:58.745Z,89.55
2019-04-04T05:37:57.371Z,89.55
2019-04-04T05:38:55.967Z,89.26
2019-04-04T05:39:55.357Z,89.65
2019-04-04T05:40:55.301Z,89.94
2019-04-04T05:41:51.941Z,89.46
2019-04-04T05:42:50.471Z,90.12
2019-04-04T05:43:49.261Z,90.41
2019-04-04T05:44:47.868Z,90.41
2019-04-04T05:45:46.405Z,90.5
2019-04-04T05:46:45.139Z,90.79
2019-04-04T05:47:43.745Z,90.36
2019-04-04T05:48:42.302Z,90.36
2019-04-04T05:49:41.107Z,90.17
2019-04-04T05:50:43.165Z,89.89
2019-04-04T05:51:38.396Z,90.36
2019-04-04T05:52:37.187Z,90.31
2019-04-04T05:53:36.037Z,89.65
2019-04-04T05:54:34.308Z,90.03
2019-04-04T05:55:33.016Z,89.65
2019-04-04T05:56:31.581Z,90.22
2019-04-04T05:57:30.131Z,90.41
2019-04-04T05:58:29.059Z,91.36
2019-04-04T05:59:27.658Z,90.41
2019-04-04T06:00:27.270Z,90.89
2019-04-04T06:01:24.788Z,90.7
2019-04-04T06:02:23.407Z,91.08
2019-04-04T06:03:21.966Z,90.6
2019-04-04T06:04:20.772Z,90.6
2019-04-04T06:05:19.474Z,91.13
2019-04-04T06:06:18.058Z,90.41
2019-04-04T06:07:16.697Z,90.98
2019-04-04T06:08:15.401Z,91.17
2019-04-04T06:09:14.610Z,91.08
2019-04-04T06:10:12.466Z,91.36
2019-04-04T06:11:10.995Z,91.65
2019-04-04T06:12:09.660Z,91.74
2019-04-04T06:13:08.202Z,92.08
2019-04-04T06:14:06.895Z,91.6
2019-04-04T06:15:05.496Z,92.08
2019-04-04T06:16:04.907Z,91.6
2019-04-04T06:17:03.008Z,91.31
2019-04-04T06:18:01.660Z,91.69
2019-04-04T06:19:00.225Z,91.41
2019-04-04T06:19:58.992Z,91.79
2019-04-04T06:20:57.589Z,91.88
2019-04-04T06:21:56.162Z,91.79
2019-04-04T06:22:54.898Z,91.88
2019-04-04T06:23:53.885Z,92.36
2019-04-04T06:24:52.379Z,91.88
2019-04-04T06:25:50.722Z,92.08
2019-04-04T06:26:49.251Z,92.74
2019-04-04T06:27:47.811Z,92.55
2019-04-04T06:28:46.390Z,92.84
2019-04-04T06:29:47.550Z,92.93
2019-04-04T06:30:43.953Z,93.12
2019-04-04T06:31:42.350Z,93.98
2019-04-04T06:32:41.113Z,93.51
2019-04-04T06:33:39.918Z,93.22
2019-04-04T06:34:38.544Z,93.7
2019-04-04T06:35:39.601Z,93.88
2019-04-04T06:36:35.851Z,93.79
2019-04-04T06:37:34.554Z,94.65
2019-04-04T06:38:33.200Z,93.98
2019-04-04T06:39:31.768Z,94.17
2019-04-04T06:40:30.917Z,93.88
2019-04-04T06:41:30.638Z,94.08
2019-04-04T06:42:27.483Z,94.56
2019-04-04T06:43:26.008Z,94.37
2019-04-04T06:44:24.676Z,94.08
2019-04-04T06:45:23.365Z,94.37
2019-04-04T06:46:22.795Z,94.84
2019-04-04T06:47:20.967Z,95.12
2019-04-04T06:48:19.683Z,95.32
2019-04-04T06:49:18.366Z,95.46
2019-04-04T06:50:17.053Z,95.89
2019-04-04T06:51:15.628Z,95.32
2019-04-04T06:52:14.172Z,95.03
2019-04-04T06:53:13.066Z,96.17
2019-04-04T06:54:11.566Z,95.84
2019-04-04T06:55:10.154Z,95.75
2019-04-04T06:56:08.806Z,96.41
2019-04-04T06:57:07.509Z,96.51
2019-04-04T06:58:08.490Z,96.22
2019-04-04T06:59:05.226Z,96.08
2019-04-04T07:00:03.962Z,95.89
2019-04-04T07:01:03.058Z,96.08
2019-04-04T07:02:01.642Z,95.98
2019-04-04T07:03:00.257Z,96.12
2019-04-04T07:04:00.127Z,96.32
2019-04-04T07:04:57.946Z,96.12
2019-04-04T07:05:56.971Z,96.98
2019-04-04T07:06:55.537Z,96.32
2019-04-04T07:09:30.775Z,97.17
2019-04-04T07:10:29.529Z,96.89
2019-04-04T07:11:28.627Z,96.51
2019-04-04T07:12:28.479Z,95.84
2019-04-04T07:13:27.835Z,97.27
2019-04-04T07:14:24.105Z,97.94
2019-04-04T07:15:22.938Z,98.32
2019-04-04T07:16:21.595Z,98.41
2019-04-04T07:17:20.217Z,98.32
2019-04-04T07:18:19.011Z,98.03
2019-04-04T07:19:17.539Z,97.65
2019-04-04T07:20:16.988Z,97.17
2019-04-04T07:21:14.998Z,97.56
2019-04-04T07:22:13.552Z,97.08
2019-04-04T07:23:14.257Z,96.8
2019-04-04T07:24:10.982Z,97.36
2019-04-04T07:25:09.936Z,97.17
2019-04-04T07:26:09.213Z,97.27
2019-04-04T07:27:07.588Z,97.17
2019-04-04T07:28:06.174Z,97.13
2019-04-04T07:29:05.042Z,97.03
2019-04-04T07:30:03.641Z,97.94
2019-04-04T07:31:02.515Z,98.51
2019-04-04T07:32:01.435Z,98.13
2019-04-04T07:33:00.554Z,98.89
2019-04-04T07:33:59.245Z,98.13
2019-04-04T07:34:58.322Z,97.75
2019-04-04T07:35:57.302Z,97.65
2019-04-04T07:36:55.939Z,96.32
2019-04-04T07:37:57.392Z,96.41
2019-04-04T07:38:53.716Z,96.12
2019-04-04T07:39:52.712Z,96.41
2019-04-04T07:40:51.738Z,95.94
2019-04-04T07:41:50.355Z,95.08
2019-04-04T07:42:49.388Z,96.51
2019-04-04T07:43:49.274Z,96.6
2019-04-04T07:44:46.894Z,97.17
2019-04-04T07:45:45.633Z,96.12
2019-04-04T07:46:45.541Z,96.22
2019-04-04T07:47:46.524Z,95.65
2019-04-04T07:48:41.975Z,96.8
2019-04-04T07:49:40.762Z,96.32
2019-04-04T07:50:39.515Z,96.32
2019-04-04T07:51:38.082Z,96.8
2019-04-04T07:52:36.784Z,96.7
2019-04-04T07:53:36.331Z,96.6
2019-04-04T07:54:34.008Z,96.8
2019-04-04T07:55:32.921Z,97.08
2019-04-04T07:56:31.926Z,96.22
2019-04-04T07:57:30.551Z,95.46
2019-04-04T07:58:29.258Z,95.94
2019-04-04T07:59:27.819Z,96.03
2019-04-04T08:00:26.408Z,96.12
2019-04-04T08:01:25.329Z,96.12
2019-04-04T08:02:23.972Z,96.08
2019-04-04T08:03:22.848Z,96.7
2019-04-04T08:04:21.730Z,95.94
2019-04-04T08:05:20.664Z,94.7
2019-04-04T08:06:19.514Z,95.22
2019-04-04T08:07:18.381Z,94.41
2019-04-04T08:08:16.991Z,94.89
2019-04-04T08:09:15.599Z,96.03
2019-04-04T08:10:20.218Z,95.75
2019-04-04T08:11:13.538Z,95.84
2019-04-04T08:12:12.215Z,95.94
2019-04-04T08:13:10.503Z,94.89
2019-04-04T08:14:09.407Z,94.13
2019-04-04T08:15:08.248Z,94.51
2019-04-04T08:16:06.961Z,94.41
2019-04-04T08:17:05.799Z,94.51
2019-04-04T08:18:04.703Z,94.98
2019-04-04T08:19:03.639Z,94.32
2019-04-04T08:20:02.559Z,95.17
2019-04-04T08:21:00.951Z,96.32
2019-04-04T08:21:59.579Z,96.12
2019-04-04T08:22:58.129Z,95.94
2019-04-04T08:23:57.063Z,94.79
2019-04-04T08:24:55.878Z,93.55
2019-04-04T08:25:54.443Z,93.74
2019-04-04T08:26:53.233Z,93.37
2019-04-04T08:27:51.848Z,92.89
2019-04-04T08:28:50.567Z,92.94
2019-04-04T08:29:49.385Z,93.93
2019-04-04T08:30:48.033Z,93.84
2019-04-04T08:31:46.872Z,93.46
2019-04-04T08:32:45.686Z,93.03
2019-04-04T08:33:44.301Z,93.13
2019-04-04T08:34:43.136Z,93.98
2019-04-04T08:35:41.707Z,94.46
2019-04-04T08:36:40.460Z,94.03
2019-04-04T08:37:39.958Z,94.7
2019-04-04T08:38:38.520Z,94.7
2019-04-04T08:39:37.486Z,94.51
2019-04-04T08:40:36.085Z,93.93
2019-04-04T08:41:34.868Z,94.56
2019-04-04T08:42:33.447Z,94.03
2019-04-04T08:43:32.084Z,92.65
2019-04-04T08:44:30.873Z,92.65
2019-04-04T08:45:29.706Z,92.18
2019-04-04T08:46:28.504Z,92.55
2019-04-04T08:47:27.339Z,92.84
2019-04-04T08:48:26.124Z,93.89
2019-04-04T08:49:24.629Z,93.13
2019-04-04T08:50:24.207Z,93.41
2019-04-04T08:51:23.042Z,93.41
2019-04-04T08:52:21.622Z,93.6
2019-04-04T08:53:20.179Z,93.51
2019-04-04T08:56:59.377Z,92.65
2019-04-04T08:57:58.019Z,92.74
2019-04-04T08:58:56.790Z,92.74
2019-04-04T08:59:55.359Z,93.03
2019-04-04T09:02:33.496Z,92.94
2019-04-04T09:03:32.143Z,92.94
2019-04-04T09:04:30.746Z,92.41
2019-04-04T09:05:29.397Z,92.69
2019-04-04T09:06:28.001Z,92.36
2019-04-04T09:07:26.661Z,93.55
2019-04-04T09:08:25.464Z,92.98
2019-04-04T09:09:24.107Z,91.65
2019-04-04T09:10:22.619Z,92.13
2019-04-04T09:11:21.442Z,92.13
2019-04-04T09:12:20.196Z,92.5
2019-04-04T09:13:19.700Z,92.65
2019-04-04T09:14:18.276Z,92.84
2019-04-04T09:15:17.123Z,93.51
2019-04-04T09:16:15.760Z,93.51
2019-04-04T09:17:14.370Z,93.41
2019-04-04T09:18:12.965Z,93.32
2019-04-04T09:19:11.937Z,93.7
2019-04-04T09:20:10.688Z,93.22
2019-04-04T09:21:09.302Z,93.65
2019-04-04T09:22:10.638Z,92.69
2019-04-04T09:23:06.427Z,92.89
2019-04-04T09:24:05.061Z,92.41
2019-04-04T09:25:04.120Z,92.13
2019-04-04T09:26:05.665Z,91.46
2019-04-04T09:27:01.216Z,91.65
2019-04-04T09:27:59.886Z,91.65
2019-04-04T09:28:58.477Z,92.13
2019-04-04T09:29:57.047Z,92.13
2019-04-04T09:30:55.725Z,91.94
2019-04-04T09:31:54.497Z,92.98
2019-04-04T09:32:53.350Z,93.7
2019-04-04T09:33:51.897Z,94.46
2019-04-04T09:34:50.490Z,95.79
2019-04-04T09:35:49.078Z,95.6
2019-04-04T09:36:47.692Z,95.41
2019-04-04T09:37:46.341Z,94.46
2019-04-04T09:38:45.094Z,94.27
2019-04-04T09:39:43.889Z,94.27
2019-04-04T09:40:42.937Z,93.7
2019-04-04T09:41:41.699Z,93.84
2019-04-04T09:42:40.248Z,92.98
2019-04-04T09:43:39.037Z,92.89
2019-04-04T09:44:38.124Z,92.79
2019-04-04T09:45:36.996Z,92.41
2019-04-04T09:46:35.687Z,91.46
2019-04-04T09:47:34.289Z,90.98
2019-04-04T09:48:33.088Z,92.41
2019-04-04T09:49:31.605Z,90.89
2019-04-04T09:50:30.534Z,90.79
2019-04-04T09:51:29.262Z,90.5
2019-04-04T09:52:27.860Z,90.6
2019-04-04T09:53:26.672Z,91.17
2019-04-04T09:54:25.449Z,91.74
2019-04-04T09:55:24.506Z,92.6
2019-04-04T09:56:22.741Z,92.5
2019-04-04T09:57:21.410Z,92.03
2019-04-04T09:58:20.105Z,91.55
2019-04-04T09:59:18.918Z,91.65
2019-04-04T10:00:17.558Z,92.32
2019-04-04T10:01:16.126Z,92.13
2019-04-04T10:02:14.854Z,92.17
2019-04-04T10:03:13.366Z,91.94
2019-04-04T10:04:12.168Z,92.22
2019-04-04T10:05:11.019Z,92.41
2019-04-04T10:06:09.635Z,92.98
2019-04-04T10:07:08.461Z,92.79
2019-04-04T10:08:07.034Z,92.5
2019-04-04T10:09:15.356Z,92.13
2019-04-04T10:10:04.258Z,92.69
2019-04-04T10:11:02.997Z,93.74
2019-04-04T10:12:01.598Z,93.93
2019-04-04T10:13:00.139Z,94.03
2019-04-04T10:13:58.847Z,94.13
2019-04-04T10:14:57.570Z,94.22
2019-04-04T10:15:56.098Z,94.03
2019-04-04T10:16:54.659Z,94.32
2019-04-04T10:17:53.409Z,94.6
2019-04-04T10:18:51.933Z,94.13
2019-04-04T10:19:50.663Z,94.32
2019-04-04T10:20:49.366Z,94.37
2019-04-04T10:21:47.917Z,94.7
2019-04-04T10:22:46.485Z,94.56
2019-04-04T10:23:45.136Z,93.51
2019-04-04T10:24:43.770Z,93.51
2019-04-04T10:25:42.318Z,94.08
2019-04-04T10:29:21.319Z,94.56
2019-04-04T10:31:21.960Z,94.56
2019-04-04T10:33:21.547Z,93.51
2019-04-04T10:36:03.554Z,92.55
2019-04-04T10:38:19.448Z,93.12
2019-04-04T10:39:28.197Z,92.93
2019-04-04T10:40:16.626Z,92.65
2019-04-04T10:41:15.391Z,93.7
2019-04-04T10:42:13.926Z,94.17
2019-04-04T10:43:12.496Z,93.7
2019-04-04T10:44:11.180Z,93.7
2019-04-04T10:45:09.778Z,94.41
2019-04-04T10:46:08.406Z,96.03
2019-04-04T10:47:07.216Z,97.17
2019-04-04T10:48:05.805Z,96.98
2019-04-04T10:49:04.389Z,96.89
2019-04-04T10:50:17.872Z,97.36
2019-04-04T10:52:37.034Z,96.17
2019-04-04T10:53:35.726Z,94.84
2019-04-04T10:54:34.316Z,94.65
2019-04-04T10:57:17.296Z,94.93
2019-04-04T10:58:15.967Z,94.46
2019-04-04T10:59:14.600Z,93.6
2019-04-04T11:00:13.484Z,92.93
2019-04-04T11:01:12.048Z,92.55
2019-04-04T11:02:10.557Z,92.46
2019-04-04T11:03:09.193Z,92.27
2019-04-04T11:04:07.793Z,92.46
2019-04-04T11:05:06.386Z,92.36
2019-04-04T11:06:05.052Z,92.55
2019-04-04T11:07:03.628Z,93.03
2019-04-04T11:08:02.425Z,92.74
2019-04-04T11:09:01.060Z,92.36
2019-04-04T11:09:59.688Z,92.98
2019-04-04T11:10:58.969Z,92.22
2019-04-04T11:11:56.777Z,92.12
2019-04-04T11:12:55.343Z,91.55
2019-04-04T11:13:53.864Z,91.93
2019-04-04T11:14:52.404Z,91.07
2019-04-04T11:15:50.960Z,91.36
2019-04-04T11:16:49.489Z,91.64
2019-04-04T11:17:48.046Z,91.74
2019-04-04T11:18:46.805Z,91.27
2019-04-04T11:19:45.429Z,90.5
2019-04-04T11:20:43.980Z,90.41
2019-04-04T11:21:42.593Z,90.12
2019-04-04T11:22:41.373Z,90.08
2019-04-04T11:23:39.953Z,90.31
2019-04-04T11:24:38.490Z,90.88
2019-04-04T11:25:37.144Z,91.88
2019-04-04T11:26:35.727Z,92.36
2019-04-04T11:27:34.249Z,91.98
2019-04-04T11:28:33.127Z,91.6
2019-04-04T11:29:31.824Z,90.93
2019-04-04T11:32:12.088Z,94.17
2019-04-04T11:33:10.645Z,93.88
2019-04-04T11:34:09.302Z,94.27
2019-04-04T11:35:07.956Z,93.6
2019-04-04T11:36:06.620Z,93.32
2019-04-04T11:44:49.667Z,92.17
2019-04-04T11:45:48.209Z,92.55
2019-04-04T11:46:46.840Z,92.84
2019-04-04T11:47:45.413Z,92.55
2019-04-04T11:48:44.022Z,92.17
2019-04-04T11:51:09.868Z,92.74
2019-04-04T11:53:07.102Z,92.65
2019-04-04T11:54:05.956Z,92.36
2019-04-04T11:55:04.513Z,92.08
2019-04-04T11:56:03.225Z,90.93
2019-04-04T11:57:01.799Z,91.6
2019-04-04T11:58:00.343Z,92.65
2019-04-04T11:58:59.061Z,92.08
2019-04-04T11:59:57.665Z,92.46
2019-04-04T12:00:56.234Z,93.03
2019-04-04T12:01:54.821Z,92.84
2019-04-04T12:02:53.537Z,92.84
2019-04-04T12:03:52.076Z,92.55
2019-04-04T12:04:50.827Z,92.65
2019-04-04T12:05:49.519Z,92.46
2019-04-04T12:06:48.151Z,93.08
2019-04-04T12:07:46.734Z,94.13
2019-04-04T12:08:45.523Z,94.32
2019-04-04T12:09:44.100Z,94.98
2019-04-04T12:10:42.626Z,95.17
2019-04-04T12:11:41.239Z,94.79
2019-04-04T12:12:39.820Z,95.75
2019-04-04T12:13:38.323Z,95.84
2019-04-04T12:14:37.077Z,95.56
2019-04-04T12:15:35.780Z,95.94
2019-04-04T12:16:34.369Z,94.89
2019-04-04T12:17:33.117Z,95.65
2019-04-04T12:18:31.749Z,96.32
2019-04-04T12:19:30.436Z,95.94
2019-04-04T12:20:29.328Z,95.08
2019-04-04T12:21:27.985Z,94.89
2019-04-04T12:22:26.677Z,96.27
2019-04-04T12:23:25.414Z,95.89
2019-04-04T12:24:24.146Z,96.46
2019-04-04T12:25:22.970Z,97.46
2019-04-04T12:26:21.755Z,97.27
2019-04-04T12:27:20.386Z,96.8
2019-04-04T12:28:19.331Z,96.51
2019-04-04T12:29:18.043Z,97.13
2019-04-04T12:30:16.585Z,97.75
2019-04-04T12:31:15.286Z,97.7
2019-04-04T12:32:13.914Z,97.94
2019-04-04T12:33:12.475Z,98.7
2019-04-04T12:34:11.345Z,98.79
2019-04-04T12:35:10.071Z,97.75
2019-04-04T12:36:08.741Z,97.46
2019-04-04T12:37:07.659Z,97.17
2019-04-04T12:38:06.227Z,97.56
2019-04-04T12:39:04.954Z,98.22
2019-04-04T12:40:03.659Z,97.56
2019-04-04T12:41:02.367Z,98.13
2019-04-04T12:42:00.991Z,98.55
2019-04-04T12:42:59.626Z,99.22
2019-04-04T12:43:58.282Z,99.41
2019-04-04T12:44:56.841Z,98.7
2019-04-04T12:45:55.427Z,99.51
2019-04-04T12:46:53.995Z,99.69
2019-04-04T12:47:52.595Z,99.99
2019-04-04T12:48:51.466Z,99.32
2019-04-04T12:49:50.048Z,98.84
2019-04-04T12:50:48.722Z,99.22
2019-04-04T12:51:47.346Z,98.94
2019-04-04T12:52:45.898Z,99.75
2019-04-04T12:53:44.533Z,98.89
2019-04-04T12:54:43.287Z,97.46
2019-04-04T12:55:41.882Z,97.08
2019-04-04T12:56:40.654Z,96.41
2019-04-04T12:57:39.566Z,96.89
2019-04-04T12:58:38.183Z,96.51
2019-04-04T12:59:37.156Z,97.94
2019-04-04T13:00:35.827Z,97.94
2019-04-04T13:01:34.420Z,98.08
2019-04-04T13:02:33.229Z,98.51
2019-04-04T13:03:32.018Z,97.7
2019-04-04T13:04:32.165Z,97.65
2019-04-04T13:05:29.698Z,98.32
2019-04-04T13:06:28.265Z,97.17
2019-04-04T13:07:27.201Z,97.27
2019-04-04T13:08:26.003Z,97.17
2019-04-04T13:09:24.750Z,96.89
2019-04-04T13:10:32.693Z,96.03
2019-04-04T13:11:22.184Z,96.41
2019-04-04T13:12:20.775Z,96.12
2019-04-04T13:13:19.437Z,96.03
2019-04-04T13:14:18.100Z,95.98
2019-04-04T13:15:16.902Z,97.13
2019-04-04T13:16:15.548Z,97.79
2019-04-04T13:17:14.310Z,98.18
2019-04-04T13:18:13.151Z,98.18
2019-04-04T13:19:11.692Z,98.94
2019-04-04T13:21:56.178Z,97.46
2019-04-04T13:23:55.741Z,98.27
2019-04-04T13:24:54.451Z,98.51
2019-04-04T13:25:53.264Z,98.13
2019-04-04T13:26:51.883Z,97.17
2019-04-04T13:29:26.834Z,98.32